sensor_id;sensor_type;location;lat;lon;timestamp;temperature;humidity
34574;DHT22;20809;49.594;8.734;2023-05-07T00:02:16;13.40;99.90
34574;DHT22;20809;49.594;8.734;2023-05-07T00:05:17;13.30;99.90
34574;DHT22;20809;49.594;8.734;2023-05-07T00:08:17;13.30;99.90
34574;DHT22;20809;49.594;8.734;2023-05-07T00:11:18;13.20;99.90
34574;DHT22;20809;49.594;8.734;2023-05-07T00:14:18;13.20;99.90
34574;DHT22;20809;49.594;8.734;2023-05-07T00:17:19;13.20;99.90
34574;DHT22;20809;49.594;8.734;2023-05-07T00:20:20;13.20;99.90
34574;DHT22;20809;49.594;8.734;2023-05-07T00:23:20;13.20;99.90
34574;DHT22;20809;49.594;8.734;2023-05-07T00:26:21;13.20;99.90
34574;DHT22;20809;49.594;8.734;2023-05-07T00:29:22;13.10;99.90
34574;DHT22;20809;49.594;8.734;2023-05-07T00:32:22;13.00;99.90
34574;DHT22;20809;49.594;8.734;2023-05-07T00:35:23;13.00;99.90
34574;DHT22;20809;49.594;8.734;2023-05-07T00:38:24;12.90;99.90
34574;DHT22;20809;49.594;8.734;2023-05-07T00:41:24;12.80;99.90
34574;DHT22;20809;49.594;8.734;2023-05-07T00:44:25;12.70;99.90
34574;DHT22;20809;49.594;8.734;2023-05-07T00:47:26;12.60;99.90
34574;DHT22;20809;49.594;8.734;2023-05-07T00:50:27;12.60;99.90
34574;DHT22;20809;49.594;8.734;2023-05-07T00:53:28;12.50;99.90
34574;DHT22;20809;49.594;8.734;2023-05-07T00:59:13;12.50;99.90
34574;DHT22;20809;49.594;8.734;2023-05-07T01:02:36;12.50;99.90
34574;DHT22;20809;49.594;8.734;2023-05-07T01:05:36;12.50;99.90
34574;DHT22;20809;49.594;8.734;2023-05-07T01:08:37;12.50;99.90
34574;DHT22;20809;49.594;8.734;2023-05-07T01:11:44;12.50;99.90
34574;DHT22;20809;49.594;8.734;2023-05-07T01:14:54;12.60;99.90
34574;DHT22;20809;49.594;8.734;2023-05-07T01:18:01;12.80;99.90
34574;DHT22;20809;49.594;8.734;2023-05-07T01:21:05;12.70;99.90
34574;DHT22;20809;49.594;8.734;2023-05-07T01:24:09;12.70;99.90
34574;DHT22;20809;49.594;8.734;2023-05-07T01:27:10;12.50;99.90
34574;DHT22;20809;49.594;8.734;2023-05-07T01:30:11;12.50;99.90
34574;DHT22;20809;49.594;8.734;2023-05-07T01:33:16;12.50;99.90
34574;DHT22;20809;49.594;8.734;2023-05-07T01:36:20;12.60;99.90
34574;DHT22;20809;49.594;8.734;2023-05-07T01:39:27;12.50;99.90
34574;DHT22;20809;49.594;8.734;2023-05-07T01:42:29;12.50;99.90
34574;DHT22;20809;49.594;8.734;2023-05-07T01:45:30;12.50;99.90
34574;DHT22;20809;49.594;8.734;2023-05-07T01:48:32;12.40;99.90
34574;DHT22;20809;49.594;8.734;2023-05-07T01:51:34;12.30;99.90
34574;DHT22;20809;49.594;8.734;2023-05-07T01:54:35;12.10;99.90
34574;DHT22;20809;49.594;8.734;2023-05-07T01:57:36;12.00;99.90
34574;DHT22;20809;49.594;8.734;2023-05-07T02:00:37;12.00;99.90
34574;DHT22;20809;49.594;8.734;2023-05-07T02:03:38;11.90;99.90
34574;DHT22;20809;49.594;8.734;2023-05-07T02:06:38;11.90;99.90
34574;DHT22;20809;49.594;8.734;2023-05-07T02:09:39;12.00;99.90
34574;DHT22;20809;49.594;8.734;2023-05-07T02:12:40;11.90;99.90
34574;DHT22;20809;49.594;8.734;2023-05-07T02:15:41;12.00;99.90
34574;DHT22;20809;49.594;8.734;2023-05-07T02:18:41;12.10;99.90
34574;DHT22;20809;49.594;8.734;2023-05-07T02:21:42;12.10;99.90
34574;DHT22;20809;49.594;8.734;2023-05-07T02:24:43;12.00;99.90
34574;DHT22;20809;49.594;8.734;2023-05-07T02:27:44;12.00;99.90
34574;DHT22;20809;49.594;8.734;2023-05-07T02:30:45;12.00;99.90
34574;DHT22;20809;49.594;8.734;2023-05-07T02:33:46;11.90;99.90
34574;DHT22;20809;49.594;8.734;2023-05-07T02:36:46;11.80;99.90
34574;DHT22;20809;49.594;8.734;2023-05-07T02:39:47;11.80;99.90
34574;DHT22;20809;49.594;8.734;2023-05-07T02:42:48;11.80;99.90
34574;DHT22;20809;49.594;8.734;2023-05-07T02:45:49;11.80;99.90
34574;DHT22;20809;49.594;8.734;2023-05-07T02:48:49;11.70;99.90
34574;DHT22;20809;49.594;8.734;2023-05-07T02:51:50;11.70;99.90
34574;DHT22;20809;49.594;8.734;2023-05-07T02:54:51;11.70;99.90
34574;DHT22;20809;49.594;8.734;2023-05-07T02:57:51;11.70;99.90
34574;DHT22;20809;49.594;8.734;2023-05-07T03:00:52;11.80;99.90
34574;DHT22;20809;49.594;8.734;2023-05-07T03:03:54;11.80;99.90
34574;DHT22;20809;49.594;8.734;2023-05-07T03:06:55;11.90;99.90
34574;DHT22;20809;49.594;8.734;2023-05-07T03:09:56;11.90;99.90
34574;DHT22;20809;49.594;8.734;2023-05-07T03:12:57;11.90;99.90
34574;DHT22;20809;49.594;8.734;2023-05-07T03:15:58;11.90;99.90
34574;DHT22;20809;49.594;8.734;2023-05-07T03:18:58;11.80;99.90
34574;DHT22;20809;49.594;8.734;2023-05-07T03:21:59;11.70;99.90
34574;DHT22;20809;49.594;8.734;2023-05-07T03:25:00;11.60;99.90
34574;DHT22;20809;49.594;8.734;2023-05-07T03:28:01;11.60;99.90
34574;DHT22;20809;49.594;8.734;2023-05-07T03:31:02;11.50;99.90
34574;DHT22;20809;49.594;8.734;2023-05-07T03:34:02;11.50;99.90
34574;DHT22;20809;49.594;8.734;2023-05-07T03:37:03;11.50;99.90
34574;DHT22;20809;49.594;8.734;2023-05-07T03:40:05;11.60;99.90
34574;DHT22;20809;49.594;8.734;2023-05-07T03:43:06;11.60;99.90
34574;DHT22;20809;49.594;8.734;2023-05-07T03:46:07;11.60;99.90
34574;DHT22;20809;49.594;8.734;2023-05-07T03:49:08;11.60;99.90
34574;DHT22;20809;49.594;8.734;2023-05-07T03:52:09;11.60;99.90
34574;DHT22;20809;49.594;8.734;2023-05-07T03:55:10;11.50;99.90
34574;DHT22;20809;49.594;8.734;2023-05-07T03:58:13;11.50;99.90
34574;DHT22;20809;49.594;8.734;2023-05-07T04:01:14;11.40;99.90
34574;DHT22;20809;49.594;8.734;2023-05-07T04:04:15;11.40;99.90
34574;DHT22;20809;49.594;8.734;2023-05-07T04:07:16;11.40;99.90
34574;DHT22;20809;49.594;8.734;2023-05-07T04:10:17;11.40;99.90
34574;DHT22;20809;49.594;8.734;2023-05-07T04:13:18;11.40;99.90
34574;DHT22;20809;49.594;8.734;2023-05-07T04:16:28;11.50;99.90
34574;DHT22;20809;49.594;8.734;2023-05-07T04:19:29;11.50;99.90
34574;DHT22;20809;49.594;8.734;2023-05-07T04:22:29;11.50;99.90
34574;DHT22;20809;49.594;8.734;2023-05-07T04:25:30;11.50;99.90
34574;DHT22;20809;49.594;8.734;2023-05-07T04:28:31;11.50;99.90
34574;DHT22;20809;49.594;8.734;2023-05-07T04:31:35;11.50;99.90
34574;DHT22;20809;49.594;8.734;2023-05-07T04:34:36;11.60;99.90
34574;DHT22;20809;49.594;8.734;2023-05-07T04:37:36;11.70;99.90
34574;DHT22;20809;49.594;8.734;2023-05-07T04:40:37;11.80;99.90
34574;DHT22;20809;49.594;8.734;2023-05-07T04:43:39;11.90;99.90
34574;DHT22;20809;49.594;8.734;2023-05-07T04:46:40;12.00;99.90
34574;DHT22;20809;49.594;8.734;2023-05-07T04:49:41;12.00;99.90
34574;DHT22;20809;49.594;8.734;2023-05-07T04:52:41;12.10;99.90
34574;DHT22;20809;49.594;8.734;2023-05-07T04:55:42;12.30;99.90
34574;DHT22;20809;49.594;8.734;2023-05-07T04:58:43;12.40;99.90
34574;DHT22;20809;49.594;8.734;2023-05-07T05:01:43;12.60;99.90
34574;DHT22;20809;49.594;8.734;2023-05-07T05:04:44;12.60;99.90
34574;DHT22;20809;49.594;8.734;2023-05-07T05:07:44;12.80;99.90
34574;DHT22;20809;49.594;8.734;2023-05-07T05:10:45;13.00;99.90
34574;DHT22;20809;49.594;8.734;2023-05-07T05:13:46;13.10;99.90
34574;DHT22;20809;49.594;8.734;2023-05-07T05:16:49;13.20;99.90
34574;DHT22;20809;49.594;8.734;2023-05-07T05:19:49;13.40;99.90
34574;DHT22;20809;49.594;8.734;2023-05-07T05:22:51;13.60;99.90
34574;DHT22;20809;49.594;8.734;2023-05-07T05:25:56;13.80;99.90
34574;DHT22;20809;49.594;8.734;2023-05-07T05:28:57;14.00;99.90
34574;DHT22;20809;49.594;8.734;2023-05-07T05:31:58;14.20;99.90
34574;DHT22;20809;49.594;8.734;2023-05-07T05:34:59;14.20;99.90
34574;DHT22;20809;49.594;8.734;2023-05-07T05:38:00;14.10;99.90
34574;DHT22;20809;49.594;8.734;2023-05-07T05:41:01;14.10;99.90
34574;DHT22;20809;49.594;8.734;2023-05-07T05:44:01;14.10;99.90
34574;DHT22;20809;49.594;8.734;2023-05-07T05:47:02;14.30;99.90
34574;DHT22;20809;49.594;8.734;2023-05-07T05:50:04;14.40;99.90
34574;DHT22;20809;49.594;8.734;2023-05-07T05:53:06;14.60;99.90
34574;DHT22;20809;49.594;8.734;2023-05-07T05:56:07;14.90;99.90
34574;DHT22;20809;49.594;8.734;2023-05-07T05:59:08;15.00;99.90
34574;DHT22;20809;49.594;8.734;2023-05-07T06:02:08;15.20;99.90
34574;DHT22;20809;49.594;8.734;2023-05-07T06:05:09;15.20;99.90
34574;DHT22;20809;49.594;8.734;2023-05-07T06:08:10;15.30;99.90
34574;DHT22;20809;49.594;8.734;2023-05-07T06:11:11;15.30;99.90
34574;DHT22;20809;49.594;8.734;2023-05-07T06:14:12;15.60;99.90
34574;DHT22;20809;49.594;8.734;2023-05-07T06:17:12;15.80;99.90
34574;DHT22;20809;49.594;8.734;2023-05-07T06:20:13;16.00;99.90
34574;DHT22;20809;49.594;8.734;2023-05-07T06:23:14;16.20;99.90
34574;DHT22;20809;49.594;8.734;2023-05-07T06:26:15;16.40;99.90
34574;DHT22;20809;49.594;8.734;2023-05-07T06:29:18;16.50;99.90
34574;DHT22;20809;49.594;8.734;2023-05-07T06:32:19;16.90;99.90
34574;DHT22;20809;49.594;8.734;2023-05-07T06:35:20;17.20;99.90
34574;DHT22;20809;49.594;8.734;2023-05-07T06:38:20;17.30;99.90
34574;DHT22;20809;49.594;8.734;2023-05-07T06:41:21;17.50;99.90
34574;DHT22;20809;49.594;8.734;2023-05-07T06:44:22;17.50;99.90
34574;DHT22;20809;49.594;8.734;2023-05-07T06:47:22;17.60;99.90
34574;DHT22;20809;49.594;8.734;2023-05-07T06:50:23;17.60;99.90
34574;DHT22;20809;49.594;8.734;2023-05-07T06:53:24;17.70;99.90
34574;DHT22;20809;49.594;8.734;2023-05-07T06:56:25;17.80;99.90
34574;DHT22;20809;49.594;8.734;2023-05-07T06:59:26;17.90;99.90
34574;DHT22;20809;49.594;8.734;2023-05-07T07:02:26;18.10;99.90
34574;DHT22;20809;49.594;8.734;2023-05-07T07:05:27;18.10;99.90
34574;DHT22;20809;49.594;8.734;2023-05-07T07:08:28;18.30;99.90
34574;DHT22;20809;49.594;8.734;2023-05-07T07:11:28;18.60;99.90
34574;DHT22;20809;49.594;8.734;2023-05-07T07:14:29;18.90;99.90
34574;DHT22;20809;49.594;8.734;2023-05-07T07:17:30;19.30;99.90
34574;DHT22;20809;49.594;8.734;2023-05-07T07:20:31;19.40;99.90
34574;DHT22;20809;49.594;8.734;2023-05-07T07:23:32;19.40;99.90
34574;DHT22;20809;49.594;8.734;2023-05-07T07:26:32;19.40;99.90
34574;DHT22;20809;49.594;8.734;2023-05-07T07:29:33;19.70;99.90
34574;DHT22;20809;49.594;8.734;2023-05-07T07:32:34;19.70;99.90
34574;DHT22;20809;49.594;8.734;2023-05-07T07:35:55;19.70;99.90
34574;DHT22;20809;49.594;8.734;2023-05-07T07:38:59;19.80;99.90
34574;DHT22;20809;49.594;8.734;2023-05-07T07:42:05;20.00;99.90
34574;DHT22;20809;49.594;8.734;2023-05-07T07:45:06;20.30;99.90
34574;DHT22;20809;49.594;8.734;2023-05-07T07:48:07;20.30;99.90
34574;DHT22;20809;49.594;8.734;2023-05-07T07:51:22;20.10;99.90
34574;DHT22;20809;49.594;8.734;2023-05-07T07:54:27;20.10;99.90
34574;DHT22;20809;49.594;8.734;2023-05-07T07:57:48;20.80;99.90
34574;DHT22;20809;49.594;8.734;2023-05-07T08:00:49;21.40;99.90
34574;DHT22;20809;49.594;8.734;2023-05-07T08:12:05;21.80;99.90
34574;DHT22;20809;49.594;8.734;2023-05-07T08:15:07;21.60;99.90
34574;DHT22;20809;49.594;8.734;2023-05-07T08:18:07;21.50;99.90
34574;DHT22;20809;49.594;8.734;2023-05-07T08:21:08;21.60;99.90
34574;DHT22;20809;49.594;8.734;2023-05-07T08:24:09;21.40;99.90
34574;DHT22;20809;49.594;8.734;2023-05-07T08:27:10;21.10;99.90
34574;DHT22;20809;49.594;8.734;2023-05-07T08:30:11;20.70;99.90
34574;DHT22;20809;49.594;8.734;2023-05-07T08:33:12;20.30;99.90
34574;DHT22;20809;49.594;8.734;2023-05-07T08:36:12;20.20;99.90
34574;DHT22;20809;49.594;8.734;2023-05-07T08:39:13;20.20;99.90
34574;DHT22;20809;49.594;8.734;2023-05-07T08:42:16;20.20;99.90
34574;DHT22;20809;49.594;8.734;2023-05-07T08:45:19;20.40;99.90
34574;DHT22;20809;49.594;8.734;2023-05-07T08:48:22;20.30;99.90
34574;DHT22;20809;49.594;8.734;2023-05-07T08:51:25;20.20;99.90
34574;DHT22;20809;49.594;8.734;2023-05-07T08:54:26;20.40;99.90
34574;DHT22;20809;49.594;8.734;2023-05-07T08:57:28;20.50;99.90
34574;DHT22;20809;49.594;8.734;2023-05-07T09:00:31;20.50;99.90
34574;DHT22;20809;49.594;8.734;2023-05-07T09:03:32;20.60;99.90
34574;DHT22;20809;49.594;8.734;2023-05-07T09:06:33;20.80;99.90
34574;DHT22;20809;49.594;8.734;2023-05-07T09:09:35;20.80;99.90
34574;DHT22;20809;49.594;8.734;2023-05-07T09:12:35;20.70;99.90
34574;DHT22;20809;49.594;8.734;2023-05-07T09:15:36;20.60;99.90
34574;DHT22;20809;49.594;8.734;2023-05-07T09:18:54;20.70;99.90
34574;DHT22;20809;49.594;8.734;2023-05-07T09:22:05;20.80;99.90
34574;DHT22;20809;49.594;8.734;2023-05-07T09:25:08;21.40;99.90
34574;DHT22;20809;49.594;8.734;2023-05-07T09:28:10;21.80;99.90
34574;DHT22;20809;49.594;8.734;2023-05-07T09:31:12;22.50;99.90
34574;DHT22;20809;49.594;8.734;2023-05-07T09:34:13;23.00;99.90
34574;DHT22;20809;49.594;8.734;2023-05-07T09:37:13;23.10;99.90
34574;DHT22;20809;49.594;8.734;2023-05-07T09:40:30;22.80;99.90
34574;DHT22;20809;49.594;8.734;2023-05-07T09:43:36;22.90;99.90
34574;DHT22;20809;49.594;8.734;2023-05-07T09:46:38;22.70;99.90
34574;DHT22;20809;49.594;8.734;2023-05-07T09:49:40;22.50;99.90
34574;DHT22;20809;49.594;8.734;2023-05-07T09:52:46;22.70;99.90
34574;DHT22;20809;49.594;8.734;2023-05-07T09:55:49;23.00;99.90
34574;DHT22;20809;49.594;8.734;2023-05-07T09:58:53;22.80;99.90
34574;DHT22;20809;49.594;8.734;2023-05-07T10:01:57;22.30;99.90
34574;DHT22;20809;49.594;8.734;2023-05-07T10:04:58;22.20;99.90
34574;DHT22;20809;49.594;8.734;2023-05-07T10:08:01;22.50;99.90
34574;DHT22;20809;49.594;8.734;2023-05-07T10:11:03;22.90;99.90
34574;DHT22;20809;49.594;8.734;2023-05-07T10:14:04;23.30;99.90
34574;DHT22;20809;49.594;8.734;2023-05-07T10:17:09;23.50;99.90
34574;DHT22;20809;49.594;8.734;2023-05-07T10:20:12;24.10;99.90
34574;DHT22;20809;49.594;8.734;2023-05-07T10:23:14;24.80;99.90
34574;DHT22;20809;49.594;8.734;2023-05-07T10:26:18;25.20;99.90
34574;DHT22;20809;49.594;8.734;2023-05-07T10:35:37;24.80;99.90
34574;DHT22;20809;49.594;8.734;2023-05-07T10:38:38;25.70;99.90
34574;DHT22;20809;49.594;8.734;2023-05-07T10:41:41;26.50;99.90
34574;DHT22;20809;49.594;8.734;2023-05-07T10:44:41;26.50;99.90
34574;DHT22;20809;49.594;8.734;2023-05-07T10:48:14;26.00;99.90
34574;DHT22;20809;49.594;8.734;2023-05-07T10:51:21;25.90;99.90
34574;DHT22;20809;49.594;8.734;2023-05-07T10:54:22;25.80;99.90
34574;DHT22;20809;49.594;8.734;2023-05-07T10:57:38;25.20;99.90
34574;DHT22;20809;49.594;8.734;2023-05-07T11:00:40;25.50;99.90
34574;DHT22;20809;49.594;8.734;2023-05-07T11:04:13;25.50;99.90
34574;DHT22;20809;49.594;8.734;2023-05-07T11:07:24;25.60;99.90
34574;DHT22;20809;49.594;8.734;2023-05-07T11:10:47;25.00;99.90
34574;DHT22;20809;49.594;8.734;2023-05-07T11:13:48;24.60;99.90
34574;DHT22;20809;49.594;8.734;2023-05-07T11:17:02;24.40;99.90
34574;DHT22;20809;49.594;8.734;2023-05-07T11:20:04;24.40;99.90
34574;DHT22;20809;49.594;8.734;2023-05-07T11:23:05;24.50;99.90
34574;DHT22;20809;49.594;8.734;2023-05-07T11:26:12;24.10;99.90
34574;DHT22;20809;49.594;8.734;2023-05-07T11:29:18;24.10;99.90
34574;DHT22;20809;49.594;8.734;2023-05-07T11:32:23;24.70;99.90
34574;DHT22;20809;49.594;8.734;2023-05-07T11:35:25;25.50;99.90
34574;DHT22;20809;49.594;8.734;2023-05-07T11:38:27;25.60;99.30
34574;DHT22;20809;49.594;8.734;2023-05-07T11:41:35;25.50;99.00
34574;DHT22;20809;49.594;8.734;2023-05-07T11:44:50;25.70;98.40
34574;DHT22;20809;49.594;8.734;2023-05-07T11:47:50;25.50;98.10
34574;DHT22;20809;49.594;8.734;2023-05-07T11:50:52;25.10;98.90
34574;DHT22;20809;49.594;8.734;2023-05-07T11:53:53;25.10;99.10
34574;DHT22;20809;49.594;8.734;2023-05-07T11:56:56;25.50;99.40
34574;DHT22;20809;49.594;8.734;2023-05-07T11:59:57;25.60;98.30
34574;DHT22;20809;49.594;8.734;2023-05-07T12:03:06;26.40;97.60
34574;DHT22;20809;49.594;8.734;2023-05-07T12:06:07;27.00;94.80
34574;DHT22;20809;49.594;8.734;2023-05-07T12:09:07;26.70;95.60
34574;DHT22;20809;49.594;8.734;2023-05-07T12:12:12;26.00;94.60
34574;DHT22;20809;49.594;8.734;2023-05-07T12:15:17;25.60;94.80
34574;DHT22;20809;49.594;8.734;2023-05-07T12:18:23;25.50;94.80
34574;DHT22;20809;49.594;8.734;2023-05-07T12:21:24;25.60;95.00
34574;DHT22;20809;49.594;8.734;2023-05-07T12:24:25;25.60;93.90
34574;DHT22;20809;49.594;8.734;2023-05-07T12:27:26;25.60;93.90
34574;DHT22;20809;49.594;8.734;2023-05-07T12:30:26;25.70;93.10
34574;DHT22;20809;49.594;8.734;2023-05-07T12:33:27;25.50;93.60
34574;DHT22;20809;49.594;8.734;2023-05-07T12:36:37;25.30;93.40
34574;DHT22;20809;49.594;8.734;2023-05-07T12:39:44;25.30;93.90
34574;DHT22;20809;49.594;8.734;2023-05-07T12:42:45;25.20;92.00
34574;DHT22;20809;49.594;8.734;2023-05-07T12:45:46;25.40;95.30
34574;DHT22;20809;49.594;8.734;2023-05-07T12:48:47;25.80;93.10
34574;DHT22;20809;49.594;8.734;2023-05-07T12:51:48;26.40;92.60
34574;DHT22;20809;49.594;8.734;2023-05-07T12:54:49;26.80;91.10
34574;DHT22;20809;49.594;8.734;2023-05-07T12:57:50;27.00;91.50
34574;DHT22;20809;49.594;8.734;2023-05-07T13:00:52;26.80;89.60
34574;DHT22;20809;49.594;8.734;2023-05-07T13:03:53;27.20;90.70
34574;DHT22;20809;49.594;8.734;2023-05-07T13:06:53;27.20;86.20
34574;DHT22;20809;49.594;8.734;2023-05-07T13:09:54;27.10;87.80
34574;DHT22;20809;49.594;8.734;2023-05-07T13:12:54;27.30;86.90
34574;DHT22;20809;49.594;8.734;2023-05-07T13:15:55;27.30;87.70
34574;DHT22;20809;49.594;8.734;2023-05-07T13:18:56;27.10;88.60
34574;DHT22;20809;49.594;8.734;2023-05-07T13:21:56;27.10;87.90
34574;DHT22;20809;49.594;8.734;2023-05-07T13:24:57;26.80;88.50
34574;DHT22;20809;49.594;8.734;2023-05-07T13:27:57;26.90;88.80
34574;DHT22;20809;49.594;8.734;2023-05-07T13:30:58;27.40;89.10
34574;DHT22;20809;49.594;8.734;2023-05-07T13:33:59;27.70;87.20
34574;DHT22;20809;49.594;8.734;2023-05-07T13:36:59;27.70;86.70
34574;DHT22;20809;49.594;8.734;2023-05-07T13:40:00;27.80;86.90
34574;DHT22;20809;49.594;8.734;2023-05-07T13:43:01;27.50;88.70
34574;DHT22;20809;49.594;8.734;2023-05-07T13:46:05;26.90;87.30
34574;DHT22;20809;49.594;8.734;2023-05-07T13:49:05;26.40;88.40
34574;DHT22;20809;49.594;8.734;2023-05-07T13:52:06;25.50;90.10
34574;DHT22;20809;49.594;8.734;2023-05-07T13:55:06;24.90;91.10
34574;DHT22;20809;49.594;8.734;2023-05-07T13:58:07;24.50;91.70
34574;DHT22;20809;49.594;8.734;2023-05-07T14:01:08;24.50;92.00
34574;DHT22;20809;49.594;8.734;2023-05-07T14:04:09;24.40;92.50
34574;DHT22;20809;49.594;8.734;2023-05-07T14:07:10;24.40;93.00
34574;DHT22;20809;49.594;8.734;2023-05-07T14:10:10;24.30;92.50
34574;DHT22;20809;49.594;8.734;2023-05-07T14:13:11;24.10;93.00
34574;DHT22;20809;49.594;8.734;2023-05-07T14:16:12;24.10;93.40
34574;DHT22;20809;49.594;8.734;2023-05-07T14:19:13;23.90;93.90
34574;DHT22;20809;49.594;8.734;2023-05-07T14:22:14;23.80;94.20
34574;DHT22;20809;49.594;8.734;2023-05-07T14:25:15;23.60;94.10
34574;DHT22;20809;49.594;8.734;2023-05-07T14:28:16;23.40;94.70
34574;DHT22;20809;49.594;8.734;2023-05-07T14:31:17;23.20;95.40
34574;DHT22;20809;49.594;8.734;2023-05-07T14:34:17;23.00;96.20
34574;DHT22;20809;49.594;8.734;2023-05-07T14:37:18;22.90;96.40
34574;DHT22;20809;49.594;8.734;2023-05-07T14:40:20;22.80;96.80
34574;DHT22;20809;49.594;8.734;2023-05-07T14:43:20;22.70;97.10
34574;DHT22;20809;49.594;8.734;2023-05-07T14:46:21;22.60;98.00
34574;DHT22;20809;49.594;8.734;2023-05-07T14:49:22;22.40;98.10
34574;DHT22;20809;49.594;8.734;2023-05-07T14:52:22;22.40;99.40
34574;DHT22;20809;49.594;8.734;2023-05-07T14:55:23;22.30;99.90
34574;DHT22;20809;49.594;8.734;2023-05-07T14:58:24;21.90;99.90
34574;DHT22;20809;49.594;8.734;2023-05-07T15:01:25;21.30;99.90
34574;DHT22;20809;49.594;8.734;2023-05-07T15:04:26;20.40;99.90
34574;DHT22;20809;49.594;8.734;2023-05-07T15:07:26;19.40;99.90
34574;DHT22;20809;49.594;8.734;2023-05-07T15:10:27;18.20;99.90
34574;DHT22;20809;49.594;8.734;2023-05-07T15:13:28;17.20;99.90
34574;DHT22;20809;49.594;8.734;2023-05-07T15:16:29;16.50;99.90
34574;DHT22;20809;49.594;8.734;2023-05-07T15:19:30;16.00;99.90
34574;DHT22;20809;49.594;8.734;2023-05-07T15:22:30;15.80;99.90
34574;DHT22;20809;49.594;8.734;2023-05-07T15:25:31;15.70;99.90
34574;DHT22;20809;49.594;8.734;2023-05-07T15:28:34;15.60;99.90
34574;DHT22;20809;49.594;8.734;2023-05-07T15:31:34;15.40;99.90
34574;DHT22;20809;49.594;8.734;2023-05-07T15:34:35;15.40;99.90
34574;DHT22;20809;49.594;8.734;2023-05-07T15:37:35;15.30;99.90
34574;DHT22;20809;49.594;8.734;2023-05-07T15:40:36;15.20;99.90
34574;DHT22;20809;49.594;8.734;2023-05-07T15:43:48;15.10;99.90
34574;DHT22;20809;49.594;8.734;2023-05-07T15:46:50;15.10;99.90
34574;DHT22;20809;49.594;8.734;2023-05-07T15:49:50;15.10;99.90
34574;DHT22;20809;49.594;8.734;2023-05-07T15:52:51;15.10;99.90
34574;DHT22;20809;49.594;8.734;2023-05-07T15:55:52;15.10;99.90
34574;DHT22;20809;49.594;8.734;2023-05-07T15:58:52;15.10;99.90
34574;DHT22;20809;49.594;8.734;2023-05-07T16:02:12;15.10;99.90
34574;DHT22;20809;49.594;8.734;2023-05-07T16:05:18;15.10;99.90
34574;DHT22;20809;49.594;8.734;2023-05-07T16:08:19;15.10;99.90
34574;DHT22;20809;49.594;8.734;2023-05-07T16:11:20;15.00;99.90
34574;DHT22;20809;49.594;8.734;2023-05-07T16:14:21;15.00;99.90
34574;DHT22;20809;49.594;8.734;2023-05-07T16:17:22;15.00;99.90
34574;DHT22;20809;49.594;8.734;2023-05-07T16:20:26;15.00;99.90
34574;DHT22;20809;49.594;8.734;2023-05-07T16:23:29;15.00;99.90
34574;DHT22;20809;49.594;8.734;2023-05-07T16:26:30;15.10;99.90
34574;DHT22;20809;49.594;8.734;2023-05-07T16:29:31;14.90;99.90
34574;DHT22;20809;49.594;8.734;2023-05-07T16:32:32;14.90;99.90
34574;DHT22;20809;49.594;8.734;2023-05-07T16:35:32;14.80;99.90
34574;DHT22;20809;49.594;8.734;2023-05-07T16:38:33;14.80;99.90
34574;DHT22;20809;49.594;8.734;2023-05-07T16:41:34;14.70;99.90
34574;DHT22;20809;49.594;8.734;2023-05-07T16:44:34;14.70;99.90
34574;DHT22;20809;49.594;8.734;2023-05-07T16:47:35;14.60;99.90
34574;DHT22;20809;49.594;8.734;2023-05-07T16:50:36;14.70;99.90
34574;DHT22;20809;49.594;8.734;2023-05-07T16:53:37;14.70;99.90
34574;DHT22;20809;49.594;8.734;2023-05-07T16:56:37;14.70;99.90
34574;DHT22;20809;49.594;8.734;2023-05-07T16:59:38;14.70;99.90
34574;DHT22;20809;49.594;8.734;2023-05-07T17:02:39;14.80;99.90
34574;DHT22;20809;49.594;8.734;2023-05-07T17:05:39;14.70;99.90
34574;DHT22;20809;49.594;8.734;2023-05-07T17:08:41;14.50;99.90
34574;DHT22;20809;49.594;8.734;2023-05-07T17:11:41;14.50;99.90
34574;DHT22;20809;49.594;8.734;2023-05-07T17:14:42;14.40;99.90
34574;DHT22;20809;49.594;8.734;2023-05-07T17:17:43;14.40;99.90
34574;DHT22;20809;49.594;8.734;2023-05-07T17:20:43;14.40;99.90
34574;DHT22;20809;49.594;8.734;2023-05-07T17:23:44;14.40;99.90
34574;DHT22;20809;49.594;8.734;2023-05-07T17:26:47;14.40;99.90
34574;DHT22;20809;49.594;8.734;2023-05-07T17:29:47;14.60;99.90
34574;DHT22;20809;49.594;8.734;2023-05-07T17:32:54;14.60;99.90
34574;DHT22;20809;49.594;8.734;2023-05-07T17:35:56;14.70;99.90
34574;DHT22;20809;49.594;8.734;2023-05-07T17:38:57;14.70;99.90
34574;DHT22;20809;49.594;8.734;2023-05-07T17:41:57;14.70;99.90
34574;DHT22;20809;49.594;8.734;2023-05-07T17:44:58;14.70;99.90
34574;DHT22;20809;49.594;8.734;2023-05-07T17:47:59;14.60;99.90
34574;DHT22;20809;49.594;8.734;2023-05-07T17:51:02;14.70;99.90
34574;DHT22;20809;49.594;8.734;2023-05-07T17:54:03;14.60;99.90
34574;DHT22;20809;49.594;8.734;2023-05-07T17:57:03;14.60;99.90
34574;DHT22;20809;49.594;8.734;2023-05-07T18:00:04;14.70;99.90
34574;DHT22;20809;49.594;8.734;2023-05-07T18:03:09;14.70;99.90
34574;DHT22;20809;49.594;8.734;2023-05-07T18:06:09;14.70;99.90
34574;DHT22;20809;49.594;8.734;2023-05-07T18:09:10;14.80;99.90
34574;DHT22;20809;49.594;8.734;2023-05-07T18:12:11;14.80;99.90
34574;DHT22;20809;49.594;8.734;2023-05-07T18:15:12;14.80;99.90
34574;DHT22;20809;49.594;8.734;2023-05-07T18:18:12;14.70;99.90
34574;DHT22;20809;49.594;8.734;2023-05-07T18:21:13;14.80;99.90
34574;DHT22;20809;49.594;8.734;2023-05-07T18:24:17;14.70;99.90
34574;DHT22;20809;49.594;8.734;2023-05-07T18:27:19;14.80;99.90
34574;DHT22;20809;49.594;8.734;2023-05-07T18:30:19;14.80;99.90
34574;DHT22;20809;49.594;8.734;2023-05-07T18:33:21;14.80;99.90
34574;DHT22;20809;49.594;8.734;2023-05-07T18:36:22;14.70;99.90
34574;DHT22;20809;49.594;8.734;2023-05-07T18:39:24;14.40;99.90
34574;DHT22;20809;49.594;8.734;2023-05-07T18:42:27;14.40;99.90
34574;DHT22;20809;49.594;8.734;2023-05-07T18:45:28;14.30;99.90
34574;DHT22;20809;49.594;8.734;2023-05-07T18:48:29;14.40;99.90
34574;DHT22;20809;49.594;8.734;2023-05-07T18:51:29;14.30;99.90
34574;DHT22;20809;49.594;8.734;2023-05-07T18:54:30;14.30;99.90
34574;DHT22;20809;49.594;8.734;2023-05-07T18:57:30;14.30;99.90
34574;DHT22;20809;49.594;8.734;2023-05-07T19:00:31;14.30;99.90
34574;DHT22;20809;49.594;8.734;2023-05-07T19:03:34;14.30;99.90
34574;DHT22;20809;49.594;8.734;2023-05-07T19:06:35;14.20;99.90
34574;DHT22;20809;49.594;8.734;2023-05-07T19:09:36;14.20;99.90
34574;DHT22;20809;49.594;8.734;2023-05-07T19:12:37;14.20;99.90
34574;DHT22;20809;49.594;8.734;2023-05-07T19:15:40;14.30;99.90
34574;DHT22;20809;49.594;8.734;2023-05-07T19:18:41;14.30;99.90
34574;DHT22;20809;49.594;8.734;2023-05-07T19:21:42;14.40;99.90
34574;DHT22;20809;49.594;8.734;2023-05-07T19:24:43;14.50;99.90
34574;DHT22;20809;49.594;8.734;2023-05-07T19:27:44;14.50;99.90